createdAt,value
2023-06-18T00:02:06.593Z,21.82
2023-06-18T00:04:34.444Z,21.82
2023-06-18T00:07:01.977Z,21.82
2023-06-18T00:09:29.768Z,21.81
2023-06-18T00:11:57.237Z,21.79
2023-06-18T00:14:24.632Z,21.76
2023-06-18T00:16:53.367Z,21.71
2023-06-18T00:19:21.157Z,21.69
2023-06-18T00:21:49.206Z,21.68
2023-06-18T00:24:16.728Z,21.68
2023-06-18T00:26:44.358Z,21.67
2023-06-18T00:29:12.068Z,21.68
2023-06-18T00:31:39.701Z,21.67
2023-06-18T00:34:08.006Z,21.66
2023-06-18T00:36:40.446Z,21.65
2023-06-18T00:39:09.108Z,21.66
2023-06-18T00:41:37.024Z,21.67
2023-06-18T00:44:04.740Z,21.67
2023-06-18T00:46:34.523Z,21.68
2023-06-18T00:49:02.341Z,21.67
2023-06-18T00:51:29.773Z,21.68
2023-06-18T00:54:00.090Z,21.69
2023-06-18T00:56:30.945Z,21.71
2023-06-18T00:58:58.857Z,21.71
2023-06-18T01:01:27.370Z,21.72
2023-06-18T01:03:58.276Z,21.73
2023-06-18T01:06:28.284Z,21.76
2023-06-18T01:08:57.404Z,21.77
2023-06-18T01:11:27.093Z,21.76
2023-06-18T01:13:55.049Z,21.74
2023-06-18T01:16:25.781Z,21.74
2023-06-18T01:18:53.407Z,21.76
2023-06-18T01:21:22.257Z,21.79
2023-06-18T01:24:04.830Z,21.80
2023-06-18T01:26:33.112Z,21.83
2023-06-18T01:29:01.637Z,21.84
2023-06-18T01:31:37.680Z,21.86
2023-06-18T01:34:05.616Z,21.88
2023-06-18T01:36:36.341Z,21.89
2023-06-18T01:39:10.207Z,21.89
2023-06-18T01:41:37.733Z,21.91
2023-06-18T01:44:10.342Z,21.92
2023-06-18T01:46:39.315Z,21.92
2023-06-18T01:49:08.753Z,21.93
2023-06-18T01:51:36.801Z,21.94
2023-06-18T01:54:05.106Z,21.95
2023-06-18T01:56:33.063Z,21.95
2023-06-18T01:59:00.935Z,21.95
2023-06-18T02:01:31.399Z,21.93
2023-06-18T02:03:59.288Z,21.92
2023-06-18T02:06:26.997Z,21.88
2023-06-18T02:08:54.530Z,21.87
2023-06-18T02:11:23.876Z,21.86
2023-06-18T02:13:51.392Z,21.86
2023-06-18T02:16:19.009Z,21.87
2023-06-18T02:18:47.075Z,21.87
2023-06-18T02:21:14.631Z,21.87
2023-06-18T02:23:42.186Z,21.86
2023-06-18T02:26:10.169Z,21.85
2023-06-18T02:28:38.502Z,21.85
2023-06-18T02:31:08.051Z,21.86
2023-06-18T02:33:35.617Z,21.87
2023-06-18T02:36:03.185Z,21.87
2023-06-18T02:38:30.571Z,21.88
2023-06-18T02:40:58.527Z,21.88
2023-06-18T02:43:26.490Z,21.88
2023-06-18T02:45:54.117Z,21.87
2023-06-18T02:48:21.631Z,21.86
2023-06-18T02:50:49.777Z,21.85
2023-06-18T02:53:17.315Z,21.82
2023-06-18T02:55:45.018Z,21.79
2023-06-18T02:58:31.032Z,21.75
2023-06-18T03:01:01.526Z,21.72
2023-06-18T03:03:31.372Z,21.67
2023-06-18T03:05:59.392Z,21.62
2023-06-18T03:08:26.867Z,21.61
2023-06-18T03:10:55.814Z,21.63
2023-06-18T03:13:23.357Z,21.64
2023-06-18T03:15:54.021Z,21.62
2023-06-18T03:18:21.822Z,21.63
2023-06-18T03:20:49.276Z,21.63
2023-06-18T03:23:16.813Z,21.64
2023-06-18T03:25:47.253Z,21.63
2023-06-18T03:28:18.796Z,21.66
2023-06-18T03:30:46.646Z,21.69
2023-06-18T03:33:14.545Z,21.74
2023-06-18T03:35:42.954Z,21.75
2023-06-18T03:38:11.122Z,21.80
2023-06-18T03:40:38.598Z,21.85
2023-06-18T03:43:06.046Z,21.90
2023-06-18T03:45:33.442Z,21.95
2023-06-18T03:48:01.032Z,21.98
2023-06-18T03:50:33.580Z,22.00
2023-06-18T03:53:01.478Z,22.02
2023-06-18T03:55:28.924Z,22.07
2023-06-18T03:57:58.249Z,22.11
2023-06-18T04:00:26.325Z,22.17
2023-06-18T04:02:53.863Z,22.23
2023-06-18T04:05:21.446Z,22.27
2023-06-18T04:07:49.262Z,22.31
2023-06-18T04:10:17.497Z,22.39
2023-06-18T04:12:44.931Z,22.46
2023-06-18T04:15:13.022Z,22.51
2023-06-18T04:17:41.436Z,22.53
2023-06-18T04:20:11.640Z,22.54
2023-06-18T04:22:39.196Z,22.59
2023-06-18T04:25:07.255Z,22.67
2023-06-18T04:27:35.219Z,22.75
2023-06-18T04:30:03.819Z,22.84
2023-06-18T04:32:31.426Z,22.92
2023-06-18T04:34:58.889Z,23.00
2023-06-18T04:37:26.885Z,23.06
2023-06-18T04:39:55.612Z,23.14
2023-06-18T04:42:23.124Z,23.22
2023-06-18T04:44:51.527Z,23.29
2023-06-18T04:47:19.040Z,23.39
2023-06-18T04:49:46.461Z,23.52
2023-06-18T04:52:15.347Z,23.66
2023-06-18T04:54:44.090Z,23.82
2023-06-18T04:57:12.167Z,23.94
2023-06-18T04:59:40.575Z,24.09
2023-06-18T05:02:09.593Z,24.25
2023-06-18T05:04:37.488Z,24.40
2023-06-18T05:07:05.267Z,24.53
2023-06-18T05:09:33.458Z,24.65
2023-06-18T05:12:00.864Z,24.76
2023-06-18T05:14:29.494Z,24.84
2023-06-18T05:16:57.242Z,24.92
2023-06-18T05:19:24.999Z,24.98
2023-06-18T05:21:52.560Z,25.02
2023-06-18T05:24:20.659Z,25.06
2023-06-18T05:26:48.178Z,25.10
2023-06-18T05:29:22.783Z,25.12
2023-06-18T05:31:55.980Z,25.17
2023-06-18T05:34:29.746Z,25.23
2023-06-18T05:36:57.269Z,25.30
2023-06-18T05:39:24.824Z,25.37
2023-06-18T05:41:52.886Z,25.42
2023-06-18T05:44:20.955Z,25.47
2023-06-18T05:46:48.682Z,25.51
2023-06-18T05:49:16.804Z,25.55
2023-06-18T05:51:46.546Z,25.59
2023-06-18T05:54:14.941Z,25.60
2023-06-18T05:56:42.491Z,25.63
2023-06-18T05:59:10.462Z,25.73
2023-06-18T06:01:41.746Z,25.87
2023-06-18T06:04:09.384Z,26.01
2023-06-18T06:06:37.829Z,26.20
2023-06-18T06:10:58.408Z,26.56
2023-06-18T06:13:26.021Z,26.68
2023-06-18T06:16:00.212Z,26.81
2023-06-18T06:18:28.399Z,26.89
2023-06-18T06:20:55.850Z,26.98
2023-06-18T06:23:24.366Z,27.02
2023-06-18T06:25:51.863Z,27.04
2023-06-18T06:28:19.302Z,27.06
2023-06-18T06:30:47.259Z,27.04
2023-06-18T06:33:14.930Z,27.05
2023-06-18T06:35:42.866Z,27.10
2023-06-18T06:38:12.116Z,27.15
2023-06-18T06:40:39.968Z,27.17
2023-06-18T06:43:08.840Z,27.19
2023-06-18T06:45:49.846Z,27.21
2023-06-18T06:48:36.375Z,27.28
2023-06-18T06:51:24.423Z,27.36
2023-06-18T06:53:54.530Z,27.39
2023-06-18T06:56:22.775Z,27.41
2023-06-18T06:58:54.049Z,27.45
2023-06-18T07:01:22.266Z,27.44
2023-06-18T07:03:51.882Z,27.43
2023-06-18T07:06:19.310Z,27.43
2023-06-18T07:08:47.311Z,27.45
2023-06-18T07:11:14.833Z,27.47
2023-06-18T07:13:42.356Z,27.49
2023-06-18T07:16:09.860Z,27.52
2023-06-18T07:18:37.302Z,27.57
2023-06-18T07:21:04.698Z,27.63
2023-06-18T07:23:32.101Z,27.73
2023-06-18T07:25:59.533Z,27.81
2023-06-18T07:28:27.094Z,27.91
2023-06-18T07:30:54.532Z,28.06
2023-06-18T07:33:22.242Z,28.19
2023-06-18T07:35:49.633Z,28.33
2023-06-18T07:38:17.459Z,28.49
2023-06-18T07:40:44.982Z,28.67
2023-06-18T07:43:12.803Z,28.85
2023-06-18T07:45:40.238Z,28.95
2023-06-18T07:48:09.086Z,29.05
2023-06-18T07:50:36.616Z,29.16
2023-06-18T07:53:05.135Z,29.34
2023-06-18T07:55:32.846Z,29.52
2023-06-18T07:58:00.549Z,29.67
2023-06-18T08:00:28.015Z,29.83
2023-06-18T08:02:55.519Z,30.00
2023-06-18T08:05:22.982Z,30.14
2023-06-18T08:07:50.310Z,30.28
2023-06-18T08:10:17.772Z,30.44
2023-06-18T08:12:45.207Z,30.58
2023-06-18T08:15:12.672Z,30.65
2023-06-18T08:17:40.148Z,30.64
2023-06-18T08:20:08.315Z,30.67
2023-06-18T08:22:36.929Z,30.72
2023-06-18T08:25:04.904Z,30.80
2023-06-18T08:27:32.274Z,30.89
2023-06-18T08:29:59.632Z,30.97
2023-06-18T08:32:27.038Z,31.01
2023-06-18T08:34:54.650Z,31.12
2023-06-18T08:37:22.225Z,31.25
2023-06-18T08:39:49.680Z,31.35
2023-06-18T08:42:21.756Z,31.44
2023-06-18T08:44:50.114Z,31.50
2023-06-18T08:47:18.980Z,31.58
2023-06-18T08:49:46.572Z,31.67
2023-06-18T08:52:14.187Z,31.74
2023-06-18T08:54:41.658Z,31.77
2023-06-18T08:57:14.321Z,31.82
2023-06-18T08:59:42.107Z,31.96
2023-06-18T09:02:09.530Z,32.12
2023-06-18T09:04:37.664Z,32.29
2023-06-18T09:07:05.382Z,32.47
2023-06-18T09:09:32.777Z,32.66
2023-06-18T09:12:00.350Z,32.81
2023-06-18T09:14:28.619Z,32.91
2023-06-18T09:16:56.121Z,33.08
2023-06-18T09:19:24.826Z,33.29
2023-06-18T09:21:52.890Z,33.50
2023-06-18T09:24:22.857Z,33.76
2023-06-18T09:27:00.237Z,34.09
2023-06-18T09:29:31.283Z,34.45
2023-06-18T09:32:13.690Z,34.99
2023-06-18T09:34:45.911Z,35.54
2023-06-18T09:37:14.431Z,36.02
2023-06-18T09:39:41.949Z,36.38
2023-06-18T09:42:11.013Z,36.64
2023-06-18T09:44:38.770Z,36.82
2023-06-18T09:47:13.439Z,36.87
2023-06-18T09:49:47.350Z,36.84
2023-06-18T09:52:17.101Z,36.77
2023-06-18T09:54:45.025Z,36.73
2023-06-18T09:57:13.929Z,36.68
2023-06-18T09:59:41.513Z,36.66
2023-06-18T10:02:14.601Z,36.62
2023-06-18T10:04:42.361Z,36.54
2023-06-18T10:07:17.730Z,36.48
2023-06-18T10:09:49.224Z,36.36
2023-06-18T10:12:17.270Z,36.16
2023-06-18T10:14:44.807Z,35.80
2023-06-18T10:17:21.489Z,35.35
2023-06-18T10:19:54.212Z,34.84
2023-06-18T10:22:21.794Z,34.39
2023-06-18T10:25:06.262Z,34.08
2023-06-18T10:27:34.612Z,33.87
2023-06-18T10:30:02.504Z,33.89
2023-06-18T10:32:32.118Z,34.19
2023-06-18T10:35:01.280Z,34.61
2023-06-18T10:37:28.711Z,35.02
2023-06-18T10:39:56.335Z,35.41
2023-06-18T10:42:24.343Z,35.59
2023-06-18T10:44:54.699Z,35.74
2023-06-18T10:47:23.757Z,35.78
2023-06-18T10:50:03.979Z,35.64
2023-06-18T10:52:32.801Z,35.51
2023-06-18T10:55:11.223Z,35.52
2023-06-18T10:57:48.150Z,35.67
2023-06-18T11:00:16.810Z,35.98
2023-06-18T11:02:44.472Z,36.45
2023-06-18T11:05:18.002Z,36.91
2023-06-18T11:07:45.525Z,37.11
2023-06-18T11:10:12.981Z,37.12
2023-06-18T11:12:40.461Z,37.11
2023-06-18T11:15:22.711Z,37.23
2023-06-18T11:17:52.388Z,37.52
2023-06-18T11:20:23.925Z,37.72
2023-06-18T11:22:59.019Z,37.92
2023-06-18T11:25:27.224Z,38.14
2023-06-18T11:27:56.041Z,38.26
2023-06-18T11:30:23.549Z,38.27
2023-06-18T11:32:51.119Z,38.22
2023-06-18T11:35:18.517Z,38.20
2023-06-18T11:37:46.630Z,38.11
2023-06-18T11:40:14.111Z,37.87
2023-06-18T11:42:52.681Z,37.74
2023-06-18T11:45:20.900Z,37.64
2023-06-18T11:47:52.497Z,37.54
2023-06-18T11:50:24.284Z,37.50
2023-06-18T11:52:51.704Z,37.43
2023-06-18T11:55:20.054Z,37.34
2023-06-18T11:57:47.639Z,37.34
2023-06-18T12:00:15.357Z,37.31
2023-06-18T12:02:42.841Z,37.20
2023-06-18T12:05:11.545Z,37.14
2023-06-18T12:07:43.174Z,37.07
2023-06-18T12:10:11.971Z,37.01
2023-06-18T12:13:06.507Z,36.95
2023-06-18T12:16:07.299Z,36.88
2023-06-18T12:18:36.199Z,36.72
2023-06-18T12:21:04.123Z,36.66
2023-06-18T12:23:32.122Z,36.62
2023-06-18T12:25:59.578Z,36.63
2023-06-18T12:28:30.262Z,36.69
2023-06-18T12:30:57.686Z,36.73
2023-06-18T12:33:25.073Z,36.81
2023-06-18T12:35:58.225Z,36.78
2023-06-18T12:38:26.460Z,36.80
2023-06-18T12:41:00.293Z,36.92
2023-06-18T12:43:27.781Z,37.04
2023-06-18T12:45:55.338Z,37.03
2023-06-18T12:48:26.603Z,37.01
2023-06-18T12:50:55.027Z,37.03
2023-06-18T12:53:33.532Z,37.02
2023-06-18T12:56:16.669Z,37.07
2023-06-18T12:58:45.091Z,37.19
2023-06-18T13:01:13.967Z,37.22
2023-06-18T13:03:42.681Z,37.20
2023-06-18T13:06:11.169Z,37.09
2023-06-18T13:08:38.721Z,36.99
2023-06-18T13:11:07.112Z,36.88
2023-06-18T13:13:34.595Z,36.70
2023-06-18T13:16:04.189Z,36.58
2023-06-18T13:18:31.922Z,36.57
2023-06-18T13:21:01.416Z,36.48
2023-06-18T13:23:28.969Z,36.35
2023-06-18T13:25:57.766Z,36.31
2023-06-18T13:28:25.314Z,36.28
2023-06-18T13:30:52.942Z,36.19
2023-06-18T13:33:20.864Z,36.08
2023-06-18T13:35:48.795Z,35.94
2023-06-18T13:38:16.863Z,35.80
2023-06-18T13:40:44.417Z,35.68
2023-06-18T13:43:15.338Z,35.59
2023-06-18T13:45:42.759Z,35.54
2023-06-18T13:48:10.257Z,35.40
2023-06-18T13:50:39.935Z,35.26
2023-06-18T13:53:10.323Z,35.11
2023-06-18T13:55:38.267Z,34.93
2023-06-18T13:58:05.690Z,34.78
2023-06-18T14:00:33.084Z,34.62
2023-06-18T14:03:00.711Z,34.55
2023-06-18T14:05:28.619Z,34.53
2023-06-18T14:07:56.241Z,34.41
2023-06-18T14:10:23.871Z,34.30
2023-06-18T14:12:51.963Z,34.10
2023-06-18T14:15:20.525Z,33.88
2023-06-18T14:17:48.254Z,33.62
2023-06-18T14:20:17.575Z,33.40
2023-06-18T14:22:46.271Z,33.22
2023-06-18T14:25:13.755Z,33.06
2023-06-18T14:27:41.153Z,32.94
2023-06-18T14:30:09.160Z,32.82
2023-06-18T14:32:36.717Z,32.69
2023-06-18T14:35:04.851Z,32.53
2023-06-18T14:37:32.224Z,32.41
2023-06-18T14:39:59.629Z,32.28
2023-06-18T14:42:27.009Z,32.14
2023-06-18T14:44:54.425Z,32.03
2023-06-18T14:47:21.878Z,31.88
2023-06-18T14:49:55.670Z,31.73
2023-06-18T14:52:23.590Z,31.63
2023-06-18T14:54:51.096Z,31.56
2023-06-18T14:57:19.541Z,31.50
2023-06-18T14:59:48.908Z,31.47
2023-06-18T15:02:28.330Z,31.43
2023-06-18T15:04:58.549Z,31.34
2023-06-18T15:07:27.179Z,31.27
2023-06-18T15:09:54.820Z,31.24
2023-06-18T15:12:22.691Z,31.17
2023-06-18T15:14:50.030Z,31.15
2023-06-18T15:17:17.484Z,31.17
2023-06-18T15:19:45.041Z,31.19
2023-06-18T15:22:12.471Z,31.24
2023-06-18T15:24:39.873Z,31.25
2023-06-18T15:27:07.923Z,31.23
2023-06-18T15:29:37.301Z,31.22
2023-06-18T15:32:05.060Z,31.14
2023-06-18T15:34:32.627Z,31.07
2023-06-18T15:37:00.710Z,31.05
2023-06-18T15:39:28.243Z,31.04
2023-06-18T15:41:55.731Z,31.02
2023-06-18T15:44:23.172Z,30.98
2023-06-18T15:46:50.796Z,30.92
2023-06-18T15:49:18.733Z,30.87
2023-06-18T15:51:46.174Z,30.83
2023-06-18T15:54:13.636Z,30.82
2023-06-18T15:59:17.835Z,30.82
2023-06-18T16:01:44.495Z,30.75
2023-06-18T16:04:11.214Z,30.70
2023-06-18T16:06:38.721Z,30.62
2023-06-18T16:09:05.504Z,30.52
2023-06-18T16:11:32.479Z,30.42
2023-06-18T16:14:00.005Z,30.29
2023-06-18T16:16:27.613Z,30.17
2023-06-18T16:18:54.425Z,30.06
2023-06-18T16:21:21.341Z,29.95
2023-06-18T16:23:54.954Z,29.85
2023-06-18T16:26:22.963Z,29.74
2023-06-18T16:28:50.586Z,29.66
2023-06-18T16:31:21.448Z,29.58
2023-06-18T16:33:49.380Z,29.52
2023-06-18T16:36:16.390Z,29.45
2023-06-18T16:38:43.862Z,29.39
2023-06-18T16:41:10.620Z,29.33
2023-06-18T16:43:39.326Z,29.25
2023-06-18T16:46:06.823Z,29.18
2023-06-18T16:48:35.738Z,29.13
2023-06-18T16:51:03.568Z,29.08
2023-06-18T16:53:31.115Z,29.00
2023-06-18T16:55:58.087Z,28.94
2023-06-18T16:58:24.856Z,28.88
2023-06-18T17:00:51.758Z,28.81
2023-06-18T17:03:19.784Z,28.73
2023-06-18T17:05:46.850Z,28.64
2023-06-18T17:08:13.709Z,28.54
2023-06-18T17:10:42.352Z,28.45
2023-06-18T17:13:09.048Z,28.36
2023-06-18T17:15:36.608Z,28.26
2023-06-18T17:18:03.505Z,28.16
2023-06-18T17:20:30.471Z,28.04
2023-06-18T17:22:57.037Z,27.92
2023-06-18T17:25:24.358Z,27.79
2023-06-18T17:27:51.701Z,27.66
2023-06-18T17:30:18.408Z,27.53
2023-06-18T17:32:45.162Z,27.43
2023-06-18T17:35:11.912Z,27.34
2023-06-18T17:37:38.672Z,27.24
2023-06-18T17:40:06.844Z,27.15
2023-06-18T17:42:35.996Z,27.05
2023-06-18T17:45:06.839Z,26.97
2023-06-18T17:47:34.748Z,26.88
2023-06-18T17:50:02.308Z,26.79
2023-06-18T17:52:30.007Z,26.69
2023-06-18T17:54:56.919Z,26.60
2023-06-18T17:57:24.408Z,26.52
2023-06-18T17:59:51.430Z,26.43
2023-06-18T18:02:18.221Z,26.34
2023-06-18T18:04:44.896Z,26.23
2023-06-18T18:07:13.533Z,26.13
2023-06-18T18:09:42.744Z,26.05
2023-06-18T18:12:13.064Z,25.97
2023-06-18T18:14:43.526Z,25.88
2023-06-18T18:17:11.269Z,25.82
2023-06-18T18:19:39.979Z,25.73
2023-06-18T18:22:11.125Z,25.61
2023-06-18T18:24:39.681Z,25.56
2023-06-18T18:29:09.511Z,25.41
2023-06-18T18:31:37.969Z,25.28
2023-06-18T18:34:06.277Z,25.24
2023-06-18T18:36:38.974Z,25.19
2023-06-18T18:39:07.175Z,25.13
2023-06-18T18:41:48.096Z,25.07
2023-06-18T18:44:20.889Z,24.98
2023-06-18T18:46:52.294Z,24.91
2023-06-18T18:49:26.771Z,24.84
2023-06-18T18:51:55.066Z,24.75
2023-06-18T18:54:22.780Z,24.69
2023-06-18T18:56:51.158Z,24.64
2023-06-18T18:59:19.224Z,24.61
2023-06-18T19:01:46.604Z,24.59
2023-06-18T19:04:14.074Z,24.56
2023-06-18T19:06:41.562Z,24.53
2023-06-18T19:09:09.124Z,24.52
2023-06-18T19:11:37.333Z,24.51
2023-06-18T19:14:04.750Z,24.51
2023-06-18T19:16:32.219Z,24.50
2023-06-18T19:18:59.839Z,24.49
2023-06-18T19:21:27.309Z,24.47
2023-06-18T19:23:55.408Z,24.46
2023-06-18T19:26:23.013Z,24.46
2023-06-18T19:28:50.497Z,24.46
2023-06-18T19:31:17.927Z,24.47
2023-06-18T19:33:45.294Z,24.47
2023-06-18T19:36:12.706Z,24.48
2023-06-18T19:38:41.500Z,24.50
2023-06-18T19:41:08.851Z,24.49
2023-06-18T19:43:36.254Z,24.47
2023-06-18T19:46:03.716Z,24.45
2023-06-18T19:48:31.168Z,24.42
2023-06-18T19:50:58.813Z,24.38
2023-06-18T19:53:26.223Z,24.35
2023-06-18T19:56:08.399Z,24.31
2023-06-18T19:58:38.184Z,24.26
2023-06-18T20:01:09.184Z,24.22
2023-06-18T20:03:40.167Z,24.22
2023-06-18T20:06:08.134Z,24.18
2023-06-18T20:08:36.061Z,24.15
2023-06-18T20:11:04.189Z,24.09
2023-06-18T20:13:31.688Z,24.08
2023-06-18T20:15:59.099Z,24.04
2023-06-18T20:18:27.066Z,24.01
2023-06-18T20:20:58.587Z,24.01
2023-06-18T20:23:26.167Z,24.02
2023-06-18T20:25:53.639Z,24.03
2023-06-18T20:28:21.098Z,24.04
2023-06-18T20:30:48.735Z,24.02
2023-06-18T20:33:16.155Z,23.98
2023-06-18T20:35:43.608Z,23.95
2023-06-18T20:38:11.141Z,23.94
2023-06-18T20:40:38.631Z,23.90
2023-06-18T20:43:06.097Z,23.87
2023-06-18T20:45:33.556Z,23.85
2023-06-18T20:48:01.466Z,23.84
2023-06-18T20:50:30.303Z,23.84
2023-06-18T20:52:57.771Z,23.85
2023-06-18T20:55:25.279Z,23.86
2023-06-18T20:57:52.898Z,23.87
2023-06-18T21:00:20.577Z,23.88
2023-06-18T21:02:48.390Z,23.88
2023-06-18T21:05:16.756Z,23.85
2023-06-18T21:07:44.152Z,23.82
2023-06-18T21:10:11.789Z,23.78
2023-06-18T21:12:39.343Z,23.73
2023-06-18T21:15:07.891Z,23.70
2023-06-18T21:17:35.606Z,23.65
2023-06-18T21:20:03.743Z,23.59
2023-06-18T21:22:31.427Z,23.53
2023-06-18T21:24:59.101Z,23.49
2023-06-18T21:27:26.900Z,23.43
2023-06-18T21:29:54.373Z,23.34
2023-06-18T21:32:21.943Z,23.28
2023-06-18T21:34:49.517Z,23.22
2023-06-18T21:37:16.959Z,23.17
2023-06-18T21:39:45.039Z,23.12
2023-06-18T21:42:13.881Z,23.08
2023-06-18T21:44:41.463Z,23.02
2023-06-18T21:47:08.990Z,22.96
2023-06-18T21:49:36.618Z,22.90
2023-06-18T21:52:04.419Z,22.84
2023-06-18T21:54:31.892Z,22.76
2023-06-18T21:56:59.604Z,22.72
2023-06-18T21:59:27.144Z,22.70
2023-06-18T22:01:55.050Z,22.70
2023-06-18T22:04:22.716Z,22.71
2023-06-18T22:06:50.534Z,22.71
2023-06-18T22:09:19.130Z,22.71
2023-06-18T22:11:48.281Z,22.72
2023-06-18T22:14:16.818Z,22.73
2023-06-18T22:16:46.227Z,22.77
2023-06-18T22:19:13.712Z,22.82
2023-06-18T22:21:41.370Z,22.87
2023-06-18T22:24:11.321Z,22.95
2023-06-18T22:26:39.109Z,23.05
2023-06-18T22:29:06.903Z,23.14
2023-06-18T22:31:34.464Z,23.24
2023-06-18T22:34:01.933Z,23.35
2023-06-18T22:36:29.328Z,23.45
2023-06-18T22:38:56.849Z,23.55
2023-06-18T22:41:24.573Z,23.63
2023-06-18T22:43:52.335Z,23.68
2023-06-18T22:46:19.973Z,23.73
2023-06-18T22:48:48.191Z,23.74
2023-06-18T22:51:16.096Z,23.74
2023-06-18T22:53:43.704Z,23.72
2023-06-18T22:56:11.264Z,23.69
2023-06-18T22:58:38.827Z,23.66
2023-06-18T23:01:08.868Z,23.63
2023-06-18T23:03:36.653Z,23.61
2023-06-18T23:06:04.249Z,23.58
2023-06-18T23:08:31.682Z,23.54
2023-06-18T23:10:59.680Z,23.50
2023-06-18T23:13:27.117Z,23.46
2023-06-18T23:15:56.488Z,23.42
2023-06-18T23:18:27.671Z,23.37
2023-06-18T23:20:58.000Z,23.33
2023-06-18T23:23:29.828Z,23.30
2023-06-18T23:25:57.411Z,23.27
2023-06-18T23:28:25.547Z,23.24
2023-06-18T23:30:53.277Z,23.22
2023-06-18T23:33:21.353Z,23.21
2023-06-18T23:35:49.215Z,23.22
2023-06-18T23:38:17.025Z,23.21
2023-06-18T23:40:44.507Z,23.20
2023-06-18T23:43:12.106Z,23.17
2023-06-18T23:45:39.936Z,23.14
2023-06-18T23:48:07.615Z,23.11
2023-06-18T23:50:35.190Z,23.10
2023-06-18T23:53:02.773Z,23.09
2023-06-18T23:55:30.349Z,23.10
2023-06-18T23:57:57.768Z,23.08
